createdAt,value
2023-04-21T00:00:43.209Z,14.85
2023-04-21T00:03:22.368Z,15.52
2023-04-21T00:05:53.020Z,15.15
2023-04-21T00:08:20.191Z,14.02
2023-04-21T00:10:50.308Z,14.82
2023-04-21T00:13:17.332Z,15.75
2023-04-21T00:15:45.301Z,15.55
2023-04-21T00:18:13.725Z,14.35
2023-04-21T00:20:43.114Z,15.07
2023-04-21T00:23:13.348Z,15.05
2023-04-21T00:25:42.556Z,15.45
2023-04-21T00:28:18.704Z,15.60
2023-04-21T00:30:48.803Z,15.15
2023-04-21T00:33:15.925Z,15.60
2023-04-21T00:35:42.862Z,15.18
2023-04-21T00:38:10.784Z,15.90
2023-04-21T00:40:38.691Z,15.90
2023-04-21T00:45:54.837Z,15.15
2023-04-21T00:48:21.729Z,15.90
2023-04-21T00:50:49.863Z,15.80
2023-04-21T00:53:19.008Z,16.05
2023-04-21T00:55:47.551Z,16.48
2023-04-21T00:58:14.621Z,17.17
2023-04-21T01:00:44.500Z,17.45
2023-04-21T01:03:11.825Z,17.73
2023-04-21T01:05:42.852Z,18.48
2023-04-21T01:08:15.837Z,18.23
2023-04-21T01:10:42.804Z,18.38
2023-04-21T01:13:09.836Z,19.38
2023-04-21T01:15:39.137Z,19.45
2023-04-21T01:18:06.133Z,20.17
2023-04-21T01:20:33.182Z,20.40
2023-04-21T01:23:01.976Z,21.00
2023-04-21T01:25:29.232Z,21.20
2023-04-21T01:27:57.752Z,21.42
2023-04-21T01:30:26.909Z,22.25
2023-04-21T01:32:53.943Z,23.30
2023-04-21T01:35:21.337Z,21.70
2023-04-21T01:37:50.635Z,22.95
2023-04-21T01:40:20.164Z,23.42
2023-04-21T01:42:47.852Z,24.42
2023-04-21T01:45:15.105Z,25.05
2023-04-21T01:47:43.087Z,25.73
2023-04-21T01:50:11.152Z,25.10
2023-04-21T01:52:38.067Z,25.83
2023-04-21T01:55:05.465Z,26.25
2023-04-21T01:57:35.527Z,28.45
2023-04-21T02:00:04.123Z,28.60
2023-04-21T02:02:44.208Z,28.95
2023-04-21T02:05:13.549Z,30.63
2023-04-21T02:07:41.632Z,29.92
2023-04-21T02:10:11.092Z,31.52
2023-04-21T02:12:39.749Z,30.63
2023-04-21T02:15:07.566Z,32.38
2023-04-21T02:17:34.638Z,34.05
2023-04-21T02:20:03.964Z,34.58
2023-04-21T02:22:32.448Z,34.15
2023-04-21T02:24:59.455Z,33.67
2023-04-21T02:27:27.599Z,35.03
2023-04-21T02:29:54.527Z,35.22
2023-04-21T02:32:28.100Z,35.45
2023-04-21T02:34:59.062Z,35.75
2023-04-21T02:37:26.751Z,36.35
2023-04-21T02:39:54.100Z,34.72
2023-04-21T02:42:21.237Z,35.65
2023-04-21T02:44:49.162Z,35.50
2023-04-21T02:47:16.895Z,36.45
2023-04-21T02:49:45.064Z,36.60
2023-04-21T02:52:13.809Z,37.35
2023-04-21T02:54:42.889Z,36.92
2023-04-21T02:57:10.944Z,38.75
2023-04-21T02:59:37.862Z,36.85
2023-04-21T03:02:04.885Z,37.63
2023-04-21T03:04:34.385Z,37.00
2023-04-21T03:07:01.777Z,38.78
2023-04-21T03:09:30.017Z,37.88
2023-04-21T03:11:57.050Z,39.53
2023-04-21T03:14:24.023Z,38.30
2023-04-21T03:16:51.658Z,39.03
2023-04-21T03:19:18.830Z,38.92
2023-04-21T03:21:48.262Z,39.25
2023-04-21T03:24:15.563Z,39.08
2023-04-21T03:26:43.604Z,38.65
2023-04-21T03:29:11.438Z,39.53
2023-04-21T03:31:38.613Z,39.33
2023-04-21T03:34:06.814Z,40.08
2023-04-21T03:36:34.304Z,40.35
2023-04-21T03:39:12.782Z,40.03
2023-04-21T03:41:49.375Z,39.40
2023-04-21T03:44:18.939Z,39.90
2023-04-21T03:46:45.947Z,40.53
2023-04-21T03:49:14.979Z,40.38
2023-04-21T03:51:41.939Z,41.28
2023-04-21T03:54:08.879Z,39.70
2023-04-21T03:56:36.869Z,40.72
2023-04-21T03:59:03.883Z,40.75
2023-04-21T04:01:31.193Z,41.08
2023-04-21T04:03:59.290Z,38.67
2023-04-21T04:06:26.607Z,40.50
2023-04-21T04:08:53.546Z,41.38
2023-04-21T04:11:22.457Z,40.60
2023-04-21T04:13:49.592Z,39.08
2023-04-21T04:16:18.336Z,40.60
2023-04-21T04:18:45.922Z,42.05
2023-04-21T04:21:13.848Z,39.85
2023-04-21T04:23:43.728Z,41.17
2023-04-21T04:26:11.500Z,41.03
2023-04-21T04:28:38.886Z,40.83
2023-04-21T04:31:06.328Z,39.83
2023-04-21T04:33:33.850Z,40.17
2023-04-21T04:36:00.843Z,40.00
2023-04-21T04:38:28.721Z,38.97
2023-04-21T04:40:58.097Z,40.75
2023-04-21T04:43:27.155Z,39.42
2023-04-21T04:45:54.112Z,38.75
2023-04-21T04:48:21.961Z,39.90
2023-04-21T04:50:48.873Z,39.67
2023-04-21T04:53:16.974Z,39.78
2023-04-21T04:55:47.733Z,39.80
2023-04-21T04:58:15.924Z,38.97
2023-04-21T05:00:42.971Z,38.28
2023-04-21T05:03:10.059Z,38.85
2023-04-21T05:05:37.294Z,40.10
2023-04-21T05:08:04.708Z,39.35
2023-04-21T05:10:33.864Z,40.00
2023-04-21T05:13:01.795Z,38.95
2023-04-21T05:15:29.757Z,38.70
2023-04-21T05:17:56.728Z,38.58
2023-04-21T05:20:23.860Z,36.90
2023-04-21T05:22:53.032Z,36.22
2023-04-21T05:25:20.896Z,35.53
2023-04-21T05:27:48.297Z,36.25
2023-04-21T05:30:15.238Z,36.05
2023-04-21T05:32:42.173Z,34.72
2023-04-21T05:35:09.238Z,34.97
2023-04-21T05:37:36.316Z,34.20
2023-04-21T05:40:03.356Z,34.90
2023-04-21T05:42:30.342Z,32.90
2023-04-21T05:44:58.082Z,33.85
2023-04-21T05:47:27.667Z,33.80
2023-04-21T05:49:54.584Z,33.67
2023-04-21T05:52:21.921Z,33.05
2023-04-21T05:54:49.131Z,33.78
2023-04-21T05:57:18.183Z,34.28
2023-04-21T05:59:45.073Z,33.95
2023-04-21T06:02:12.783Z,33.70
2023-04-21T06:04:41.179Z,32.88
2023-04-21T06:07:13.807Z,34.00
2023-04-21T06:09:45.156Z,32.58
2023-04-21T06:12:18.048Z,32.63
2023-04-21T06:14:51.716Z,32.27
2023-04-21T06:17:19.126Z,32.65
2023-04-21T06:19:46.193Z,30.77
2023-04-21T06:22:15.685Z,30.95
2023-04-21T06:24:43.036Z,30.75
2023-04-21T06:27:12.774Z,31.85
2023-04-21T06:29:42.707Z,31.10
2023-04-21T06:32:13.137Z,31.42
2023-04-21T06:34:44.433Z,28.83
2023-04-21T06:37:12.377Z,28.52
2023-04-21T06:39:39.596Z,29.13
2023-04-21T06:42:06.894Z,27.15
2023-04-21T06:44:44.061Z,27.98
2023-04-21T06:47:11.437Z,25.80
2023-04-21T06:49:38.531Z,26.73
2023-04-21T06:52:05.935Z,27.00
2023-04-21T06:54:33.079Z,26.10
2023-04-21T06:57:01.073Z,25.70
2023-04-21T06:59:28.088Z,25.20
2023-04-21T07:01:55.110Z,26.30
2023-04-21T07:04:23.056Z,25.38
2023-04-21T07:06:50.088Z,23.75
2023-04-21T07:09:21.296Z,23.83
2023-04-21T07:11:48.395Z,24.23
2023-04-21T07:14:18.400Z,22.23
2023-04-21T07:16:45.647Z,21.52
2023-04-21T07:19:16.360Z,20.73
2023-04-21T07:21:52.002Z,21.27
2023-04-21T07:24:23.854Z,21.08
2023-04-21T07:26:51.834Z,20.90
2023-04-21T07:29:22.756Z,20.52
2023-04-21T07:31:57.718Z,19.23
2023-04-21T07:34:26.094Z,19.25
2023-04-21T07:36:57.800Z,19.55
2023-04-21T07:39:25.435Z,19.80
2023-04-21T07:41:55.897Z,19.88
2023-04-21T07:44:23.966Z,19.10
2023-04-21T07:46:52.170Z,19.58
2023-04-21T07:49:19.498Z,19.48
2023-04-21T07:51:46.936Z,18.88
2023-04-21T07:54:13.799Z,19.20
2023-04-21T07:56:41.254Z,19.02
2023-04-21T07:59:08.270Z,18.83
2023-04-21T08:01:36.682Z,18.10
2023-04-21T08:04:03.922Z,18.20
2023-04-21T08:06:33.361Z,19.30
2023-04-21T08:09:01.601Z,17.45
2023-04-21T08:11:28.666Z,17.90
2023-04-21T08:13:58.128Z,18.67
2023-04-21T08:16:25.092Z,17.20
2023-04-21T08:18:53.114Z,17.75
2023-04-21T08:21:20.487Z,17.40
2023-04-21T08:23:47.859Z,17.65
2023-04-21T08:26:17.308Z,16.38
2023-04-21T08:28:44.350Z,16.13
2023-04-21T08:31:11.387Z,15.95
2023-04-21T08:33:53.945Z,16.17
2023-04-21T08:36:32.032Z,16.50
2023-04-21T08:39:00.035Z,15.35
2023-04-21T08:41:31.861Z,15.43
2023-04-21T08:43:59.251Z,15.13
2023-04-21T08:46:34.876Z,14.35
2023-04-21T08:49:05.100Z,15.02
2023-04-21T08:51:34.066Z,15.13
2023-04-21T08:54:06.345Z,15.68
2023-04-21T08:56:35.485Z,16.38
2023-04-21T08:59:02.429Z,15.20
2023-04-21T09:01:30.666Z,14.98
2023-04-21T09:04:18.046Z,14.07
2023-04-21T09:06:46.631Z,14.73
2023-04-21T09:09:15.036Z,14.90
2023-04-21T09:11:42.194Z,14.23
2023-04-21T09:14:09.838Z,15.15
2023-04-21T09:16:38.768Z,15.63
2023-04-21T09:19:15.411Z,14.65
2023-04-21T09:21:44.703Z,14.70
2023-04-21T09:24:13.947Z,14.15
2023-04-21T09:26:44.104Z,91.50
2023-04-21T09:29:11.262Z,14.93
2023-04-21T09:31:38.374Z,17.20
2023-04-21T09:34:20.768Z,16.27
2023-04-21T09:41:47.398Z,40.80
2023-04-21T09:44:14.580Z,16.17
2023-04-21T09:46:46.127Z,15.82
2023-04-21T09:49:16.637Z,15.77
2023-04-21T09:52:10.382Z,14.85
2023-04-21T09:54:35.302Z,14.95
2023-04-21T09:57:04.982Z,13.43
2023-04-21T09:59:43.736Z,13.50
2023-04-21T10:02:13.470Z,14.68
2023-04-21T10:04:43.904Z,13.13
2023-04-21T10:07:12.675Z,12.68
2023-04-21T10:09:49.072Z,12.80
2023-04-21T10:12:30.121Z,13.10
2023-04-21T10:14:58.106Z,11.75
2023-04-21T10:17:27.025Z,12.50
2023-04-21T10:19:58.443Z,12.65
2023-04-21T10:22:33.441Z,12.80
2023-04-21T10:25:02.835Z,11.05
2023-04-21T10:27:40.729Z,11.45
2023-04-21T10:30:26.714Z,12.93
2023-04-21T10:33:06.316Z,13.05
2023-04-21T10:36:00.558Z,12.55
2023-04-21T10:38:42.294Z,13.93
2023-04-21T10:41:29.180Z,14.60
2023-04-21T10:43:59.958Z,13.30
2023-04-21T10:46:41.333Z,12.88
2023-04-21T10:49:12.313Z,11.55
2023-04-21T10:52:02.666Z,11.45
2023-04-21T10:55:04.392Z,11.10
2023-04-21T10:57:34.195Z,11.43
2023-04-21T11:00:07.283Z,12.18
2023-04-21T11:02:38.970Z,12.32
2023-04-21T11:05:14.288Z,11.52
2023-04-21T11:07:41.705Z,11.30
2023-04-21T11:10:11.414Z,10.70
2023-04-21T11:12:42.212Z,10.57
2023-04-21T11:15:11.666Z,11.18
2023-04-21T11:17:40.020Z,11.27
2023-04-21T11:20:07.841Z,11.23
2023-04-21T11:22:38.192Z,10.50
2023-04-21T11:25:05.730Z,10.32
2023-04-21T11:27:33.874Z,10.68
2023-04-21T11:30:04.195Z,10.70
2023-04-21T11:32:31.230Z,10.15
2023-04-21T11:34:59.244Z,9.25
2023-04-21T11:37:27.748Z,10.18
2023-04-21T11:39:59.605Z,10.70
2023-04-21T11:42:27.375Z,10.57
2023-04-21T11:44:56.828Z,11.10
2023-04-21T11:47:28.353Z,10.45
2023-04-21T11:49:58.835Z,10.32
2023-04-21T11:52:29.842Z,9.88
2023-04-21T11:55:06.828Z,8.95
2023-04-21T11:57:36.668Z,10.73
2023-04-21T12:00:11.943Z,9.98
2023-04-21T12:02:39.707Z,10.35
2023-04-21T12:05:11.945Z,9.65
2023-04-21T12:07:42.858Z,9.27
2023-04-21T12:10:17.959Z,9.88
2023-04-21T12:12:46.468Z,10.10
2023-04-21T12:15:22.592Z,10.32
2023-04-21T12:17:53.428Z,10.68
2023-04-21T12:20:23.518Z,9.80
2023-04-21T12:22:51.082Z,10.88
2023-04-21T12:25:19.072Z,9.70
2023-04-21T12:27:53.153Z,8.75
2023-04-21T12:30:21.746Z,9.10
2023-04-21T12:32:52.083Z,7.70
2023-04-21T12:35:19.352Z,7.60
2023-04-21T12:37:47.288Z,8.40
2023-04-21T12:40:14.169Z,8.80
2023-04-21T12:42:45.372Z,8.55
2023-04-21T12:45:13.528Z,8.25
2023-04-21T12:47:43.511Z,7.63
2023-04-21T12:50:12.706Z,6.40
2023-04-21T12:52:39.808Z,5.72
2023-04-21T12:55:07.512Z,6.03
2023-04-21T12:57:34.873Z,6.25
2023-04-21T13:00:02.027Z,6.55
2023-04-21T13:02:30.993Z,6.38
2023-04-21T13:05:01.440Z,7.07
2023-04-21T13:07:31.486Z,7.13
2023-04-21T13:09:59.141Z,7.43
2023-04-21T13:12:26.210Z,9.93
2023-04-21T13:14:53.183Z,9.95
2023-04-21T13:17:20.684Z,9.43
2023-04-21T13:19:48.978Z,8.40
2023-04-21T13:22:17.706Z,8.95
2023-04-21T13:24:46.181Z,9.77
2023-04-21T13:27:16.345Z,9.38
2023-04-21T13:29:43.683Z,9.07
2023-04-21T13:32:11.085Z,9.50
2023-04-21T13:34:38.331Z,9.90
2023-04-21T13:37:06.031Z,9.18
2023-04-21T13:39:34.681Z,8.80
2023-04-21T13:42:05.853Z,8.93
2023-04-21T13:44:33.321Z,8.95
2023-04-21T13:47:00.892Z,7.50
2023-04-21T13:49:28.237Z,8.48
2023-04-21T13:51:55.432Z,8.82
2023-04-21T13:54:22.676Z,8.52
2023-04-21T13:56:51.437Z,8.20
2023-04-21T13:59:21.365Z,8.27
2023-04-21T14:01:48.601Z,7.85
2023-04-21T14:04:15.913Z,7.97
2023-04-21T14:06:43.110Z,8.15
2023-04-21T14:09:12.283Z,8.23
2023-04-21T14:12:07.010Z,8.07
2023-04-21T14:15:00.892Z,7.78
2023-04-21T14:17:32.494Z,7.95
2023-04-21T14:20:00.004Z,7.35
2023-04-21T14:22:28.158Z,6.82
2023-04-21T14:24:56.254Z,7.10
2023-04-21T14:27:24.293Z,7.13
2023-04-21T14:29:51.527Z,7.43
2023-04-21T14:32:20.714Z,7.78
2023-04-21T14:39:08.048Z,7.55
2023-04-21T14:41:35.089Z,7.78
2023-04-21T14:44:03.914Z,7.82
2023-04-21T14:46:34.284Z,7.80
2023-04-21T14:49:01.483Z,7.53
2023-04-21T14:51:28.556Z,7.43
2023-04-21T14:53:55.940Z,7.68
2023-04-21T14:56:23.087Z,7.00
2023-04-21T14:58:50.341Z,7.47
2023-04-21T15:01:19.610Z,7.72
2023-04-21T15:04:11.859Z,7.50
2023-04-21T15:06:40.083Z,7.50
2023-04-21T15:09:07.289Z,8.15
2023-04-21T15:11:34.601Z,6.72
2023-04-21T15:14:01.672Z,7.15
2023-04-21T15:16:28.738Z,7.60
2023-04-21T15:18:55.793Z,7.53
2023-04-21T15:21:24.121Z,6.82
2023-04-21T15:23:53.093Z,6.90
2023-04-21T15:26:22.865Z,7.45
2023-04-21T15:28:52.026Z,7.30
2023-04-21T15:31:20.526Z,7.63
2023-04-21T15:33:48.588Z,6.93
2023-04-21T15:36:15.705Z,7.28
2023-04-21T15:38:43.292Z,7.40
2023-04-21T15:41:11.216Z,7.80
2023-04-21T15:43:39.430Z,7.78
2023-04-21T15:46:13.183Z,7.90
2023-04-21T15:48:41.620Z,7.78
2023-04-21T15:51:13.290Z,7.32
2023-04-21T15:53:57.340Z,7.80
2023-04-21T15:56:24.698Z,7.25
2023-04-21T15:58:51.956Z,8.63
2023-04-21T16:01:19.898Z,7.10
2023-04-21T16:03:49.482Z,7.20
2023-04-21T16:06:19.000Z,6.32
2023-04-21T16:08:46.073Z,6.22
2023-04-21T16:11:14.481Z,7.28
2023-04-21T16:13:41.696Z,7.30
2023-04-21T16:16:09.392Z,7.65
2023-04-21T16:18:36.687Z,7.57
2023-04-21T16:21:06.408Z,7.32
2023-04-21T16:23:33.492Z,7.32
2023-04-21T16:26:02.517Z,7.32
2023-04-21T16:28:29.528Z,7.10
2023-04-21T16:30:56.656Z,6.70
2023-04-21T16:33:39.380Z,3.92
2023-04-21T16:38:48.366Z,2.60
2023-04-21T16:41:20.859Z,2.75
2023-04-21T16:43:52.815Z,2.63
2023-04-21T16:46:28.881Z,2.80
2023-04-21T16:48:58.122Z,2.80
2023-04-21T16:51:35.420Z,2.88
2023-04-21T16:54:06.657Z,2.58
2023-04-21T16:56:35.467Z,3.08
2023-04-21T16:59:02.954Z,2.83
2023-04-21T17:01:30.049Z,2.55
2023-04-21T17:04:02.319Z,2.20
2023-04-21T17:08:59.840Z,3.00
2023-04-21T17:11:28.732Z,2.63
2023-04-21T17:13:58.944Z,2.38
2023-04-21T17:16:39.965Z,3.45
2023-04-21T17:19:09.210Z,3.90
2023-04-21T17:21:37.284Z,4.07
2023-04-21T17:24:10.810Z,5.07
2023-04-21T17:26:37.809Z,5.32
2023-04-21T17:29:05.312Z,5.38
2023-04-21T17:32:03.328Z,5.47
2023-04-21T17:34:44.120Z,5.60
2023-04-21T17:37:19.518Z,6.00
2023-04-21T17:39:48.505Z,5.70
2023-04-21T17:42:48.634Z,6.60
2023-04-21T17:45:22.994Z,6.80
2023-04-21T17:48:10.659Z,8.07
2023-04-21T17:50:41.296Z,6.75
2023-04-21T17:53:08.963Z,7.78
2023-04-21T17:55:36.012Z,9.40
2023-04-21T17:58:03.104Z,9.25
2023-04-21T18:00:34.363Z,9.23
2023-04-21T18:03:04.129Z,9.70
2023-04-21T18:05:32.365Z,8.57
2023-04-21T18:08:00.743Z,8.63
2023-04-21T18:10:29.763Z,10.27
2023-04-21T18:12:57.986Z,8.52
2023-04-21T18:15:27.684Z,9.05
2023-04-21T18:17:56.329Z,8.20
2023-04-21T18:20:23.544Z,9.88
2023-04-21T18:22:51.943Z,9.93
2023-04-21T18:25:38.356Z,11.02
2023-04-21T18:28:11.484Z,12.85
2023-04-21T18:30:40.863Z,13.32
2023-04-21T18:33:09.607Z,15.52
2023-04-21T18:35:41.732Z,15.50
2023-04-21T18:38:14.265Z,16.77
2023-04-21T18:43:28.525Z,16.60
2023-04-21T18:45:55.733Z,16.75
2023-04-21T18:48:27.055Z,16.40
2023-04-21T18:50:55.377Z,17.60
2023-04-21T18:53:31.446Z,17.52
2023-04-21T18:56:00.438Z,17.73
2023-04-21T18:58:29.993Z,18.42
2023-04-21T19:00:59.337Z,18.08
2023-04-21T19:03:36.459Z,19.65
2023-04-21T19:06:05.160Z,20.42
2023-04-21T19:08:41.906Z,20.58
2023-04-21T19:11:13.728Z,19.50
2023-04-21T19:13:43.042Z,20.20
2023-04-21T19:16:14.261Z,21.30
2023-04-21T19:18:41.866Z,20.88
2023-04-21T19:21:17.345Z,20.23
2023-04-21T19:23:50.612Z,18.02
2023-04-21T19:29:03.256Z,22.20
2023-04-21T19:31:32.419Z,19.48
2023-04-21T19:33:59.423Z,19.50
2023-04-21T19:36:27.460Z,17.27
2023-04-21T19:38:55.452Z,17.30
2023-04-21T19:41:22.968Z,19.48
2023-04-21T19:43:50.002Z,19.50
2023-04-21T19:46:18.122Z,19.92
2023-04-21T19:48:46.413Z,18.98
2023-04-21T19:51:15.795Z,18.50
2023-04-21T19:54:12.369Z,19.80
2023-04-21T19:56:40.588Z,20.27
2023-04-21T19:59:07.907Z,17.98
2023-04-21T20:01:41.103Z,21.23
2023-04-21T20:04:11.089Z,18.92
2023-04-21T20:06:39.258Z,18.90
2023-04-21T20:09:08.509Z,18.83
2023-04-21T20:11:40.761Z,18.65
2023-04-21T20:14:13.109Z,18.42
2023-04-21T20:17:12.300Z,18.13
2023-04-21T20:19:52.747Z,18.23
2023-04-21T20:22:22.538Z,18.45
2023-04-21T20:24:52.230Z,19.35
2023-04-21T20:27:20.784Z,19.67
2023-04-21T20:29:48.605Z,19.85
2023-04-21T20:32:16.550Z,20.52
2023-04-21T20:34:45.896Z,19.50
2023-04-21T20:37:16.960Z,20.13
2023-04-21T20:39:46.880Z,20.67
2023-04-21T20:42:16.813Z,20.08
2023-04-21T20:44:43.955Z,20.55
2023-04-21T20:47:13.737Z,22.10
2023-04-21T20:49:43.662Z,21.77
2023-04-21T20:52:12.959Z,23.35
2023-04-21T20:54:39.930Z,23.08
2023-04-21T20:57:08.721Z,22.15
2023-04-21T20:59:38.047Z,23.85
2023-04-21T21:02:06.703Z,23.23
2023-04-21T21:04:34.974Z,23.80
2023-04-21T21:07:02.432Z,23.73
2023-04-21T21:09:31.613Z,25.92
2023-04-21T21:11:59.848Z,24.38
2023-04-21T21:14:27.007Z,25.38
2023-04-21T21:16:55.280Z,25.13
2023-04-21T21:19:23.080Z,28.20
2023-04-21T21:21:49.953Z,26.85
2023-04-21T21:24:17.670Z,28.40
2023-04-21T21:26:45.875Z,28.50
2023-04-21T21:29:13.289Z,29.55
2023-04-21T21:31:40.889Z,27.55
2023-04-21T21:34:08.085Z,29.42
2023-04-21T21:36:37.185Z,29.73
2023-04-21T21:39:07.747Z,28.77
2023-04-21T21:41:37.551Z,31.08
2023-04-21T21:44:04.778Z,34.15
2023-04-21T21:46:35.485Z,33.67
2023-04-21T21:49:07.035Z,31.15
2023-04-21T21:51:38.583Z,30.27
2023-04-21T21:54:08.529Z,28.75
2023-04-21T21:56:45.149Z,29.27
2023-04-21T21:59:14.518Z,29.73
2023-04-21T22:01:42.859Z,29.48
2023-04-21T22:04:12.003Z,30.40
2023-04-21T22:06:49.368Z,29.50
2023-04-21T22:09:23.380Z,30.73
2023-04-21T22:11:54.772Z,31.08
2023-04-21T22:14:33.694Z,29.90
2023-04-21T22:17:04.818Z,29.92
2023-04-21T22:19:39.385Z,28.80
2023-04-21T22:22:10.666Z,28.90
2023-04-21T22:24:54.502Z,28.25
2023-04-21T22:27:53.153Z,28.00
2023-04-21T22:30:22.786Z,27.98
2023-04-21T22:33:04.054Z,28.10
2023-04-21T22:35:31.469Z,28.42
2023-04-21T22:38:03.693Z,29.38
2023-04-21T22:40:35.704Z,30.15
2023-04-21T22:43:07.064Z,27.08
2023-04-21T22:45:34.719Z,26.90
2023-04-21T22:48:04.143Z,30.40
2023-04-21T22:50:33.460Z,30.02
2023-04-21T22:53:02.316Z,27.40
2023-04-21T22:55:31.286Z,28.02
2023-04-21T23:00:47.569Z,27.40
2023-04-21T23:03:15.254Z,26.30
2023-04-21T23:05:45.042Z,26.00
2023-04-21T23:08:16.630Z,25.77
2023-04-21T23:10:48.198Z,26.55
2023-04-21T23:13:19.327Z,26.55
2023-04-21T23:16:01.146Z,29.23
2023-04-21T23:18:30.852Z,30.63
2023-04-21T23:21:00.515Z,31.30
2023-04-21T23:23:33.715Z,29.60
2023-04-21T23:28:46.052Z,32.55
2023-04-21T23:31:57.022Z,30.40
2023-04-21T23:34:28.834Z,29.85
2023-04-21T23:36:55.970Z,31.85
2023-04-21T23:39:54.262Z,34.67
2023-04-21T23:42:21.262Z,35.97
2023-04-21T23:44:49.704Z,34.10
2023-04-21T23:47:22.719Z,34.88
2023-04-21T23:49:50.163Z,34.15
2023-04-21T23:52:17.124Z,34.88
2023-04-21T23:54:49.822Z,35.17
2023-04-21T23:57:19.388Z,35.63
2023-04-21T23:59:46.998Z,33.85
